Time;durP1;ratioP1;P1;durP2;ratioP2;P2;SDS_P1;SDS_P2;PMS_P1;PMS_P2;Temp;Humidity;BMP_temperature;BMP_pressure;BME280_temperature;BME280_humidity;BME280_pressure;Samples;Min_cycle;Max_cycle;Signal;HPM_P1;HPM_P2
2021/07/06 00:01:05;;;;;;;2.20;2.10;;;29.90;58.30;;;;;;5123850;28;20911;-26
2021/07/06 00:03:36;;;;;;;2.50;2.40;;;30.00;58.20;;;;;;5123896;28;20448;-27
2021/07/06 00:06:07;;;;;;;2.23;2.13;;;29.70;58.50;;;;;;5125437;28;20444;-27
2021/07/06 00:08:40;;;;;;;2.67;2.47;;;29.70;59.60;;;;;;5127940;28;20502;-27
2021/07/06 00:11:11;;;;;;;2.50;2.40;;;29.80;59.70;;;;;;5127071;28;21008;-27
2021/07/06 00:13:42;;;;;;;1.97;1.87;;;29.70;59.60;;;;;;5127878;28;20472;-24
2021/07/06 00:16:13;;;;;;;2.30;2.20;;;29.60;59.70;;;;;;5128008;28;20571;-25
2021/07/06 00:18:44;;;;;;;2.17;2.07;;;29.60;59.20;;;;;;5127835;28;20490;-30
2021/07/06 00:21:16;;;;;;;2.20;2.10;;;29.50;58.90;;;;;;5127318;28;20516;-27
2021/07/06 00:23:53;;;;;;;2.17;2.07;;;29.50;59.20;;;;;;5140070;27;20449;-28
2021/07/06 00:26:24;;;;;;;1.83;1.73;;;29.50;59.00;;;;;;5147542;27;20448;-27
2021/07/06 00:28:55;;;;;;;2.03;1.93;;;29.30;58.40;;;;;;5148409;27;20836;-28
2021/07/06 00:31:26;;;;;;;2.00;1.90;;;29.20;58.10;;;;;;5148004;27;20468;-26
2021/07/06 00:33:57;;;;;;;1.80;1.70;;;29.20;58.80;;;;;;5148227;27;20446;-28
2021/07/06 00:36:30;;;;;;;1.87;1.77;;;29.20;56.90;;;;;;5147475;27;20452;-28
2021/07/06 00:39:02;;;;;;;1.63;1.53;;;29.20;56.40;;;;;;5148024;27;20466;-24
2021/07/06 00:41:36;;;;;;;1.60;1.50;;;29.10;57.20;;;;;;5146788;27;20904;-25
2021/07/06 00:44:14;;;;;;;1.40;1.30;;;29.00;56.50;;;;;;5147360;27;20980;-32
2021/07/06 00:46:46;;;;;;;1.63;1.43;;;28.90;57.40;;;;;;5147837;27;20477;-28
2021/07/06 00:49:17;;;;;;;1.30;1.20;;;28.90;54.80;;;;;;5147704;27;20533;-28
2021/07/06 00:51:48;;;;;;;2.03;1.27;;;28.80;55.70;;;;;;5146513;27;20467;-25
2021/07/06 00:54:22;;;;;;;1.50;1.40;;;28.80;56.40;;;;;;5147786;27;20452;-26
2021/07/06 00:56:56;;;;;;;2.20;1.30;;;28.80;56.50;;;;;;5125825;27;20463;-27
2021/07/06 00:59:27;;;;;;;1.10;1.10;;;28.70;57.30;;;;;;5126534;28;20482;-27
2021/07/06 01:01:58;;;;;;;1.47;1.40;;;28.60;57.90;;;;;;5126522;28;20498;-30
2021/07/06 01:04:31;;;;;;;1.40;1.30;;;28.60;56.90;;;;;;5126966;28;20471;-26
2021/07/06 01:07:02;;;;;;;1.23;1.23;;;28.60;56.50;;;;;;5126181;28;20440;-25
2021/07/06 01:09:39;;;;;;;3.40;1.40;;;28.60;56.70;;;;;;5126664;28;20517;-24
2021/07/06 01:12:17;;;;;;;1.53;1.43;;;28.50;56.30;;;;;;5125570;28;20445;-27
2021/07/06 01:14:48;;;;;;;1.60;1.50;;;28.40;57.10;;;;;;5124540;28;20450;-25
2021/07/06 01:17:27;;;;;;;1.47;1.37;;;28.40;57.50;;;;;;5125248;28;21019;-28
2021/07/06 01:20:00;;;;;;;1.53;1.43;;;28.40;57.40;;;;;;5126403;28;20513;-26
2021/07/06 01:22:34;;;;;;;1.40;1.30;;;28.30;58.50;;;;;;5126252;27;20445;-29
2021/07/06 01:25:08;;;;;;;1.83;1.73;;;28.20;58.20;;;;;;5146990;27;20448;-27
2021/07/06 01:27:43;;;;;;;1.40;1.30;;;28.20;58.70;;;;;;5146051;27;20443;-26
2021/07/06 01:30:16;;;;;;;1.20;1.10;;;28.10;58.60;;;;;;5146834;27;20575;-26
2021/07/06 01:32:50;;;;;;;2.33;1.30;;;28.10;58.70;;;;;;5146326;27;20440;-25
2021/07/06 01:35:22;;;;;;;1.50;1.40;;;28.00;59.30;;;;;;5147084;27;20492;-24
2021/07/06 01:38:00;;;;;;;1.60;1.50;;;27.90;60.20;;;;;;5146467;27;20468;-23
2021/07/06 01:40:32;;;;;;;2.60;1.57;;;27.80;59.60;;;;;;5145487;27;20445;-25
2021/07/06 01:43:03;;;;;;;1.30;1.20;;;27.80;59.00;;;;;;5146236;27;20439;-29
2021/07/06 01:45:34;;;;;;;1.33;1.30;;;27.70;60.00;;;;;;5146126;27;20530;-26
2021/07/06 01:48:08;;;;;;;3.67;2.27;;;27.70;60.00;;;;;;5146335;27;20448;-24
2021/07/06 01:50:43;;;;;;;1.70;1.60;;;27.70;57.60;;;;;;5145938;27;20467;-28
2021/07/06 01:53:17;;;;;;;1.10;1.10;;;27.60;56.80;;;;;;5145845;27;20792;-26
2021/07/06 01:55:50;;;;;;;1.50;1.13;;;27.60;54.90;;;;;;5134378;27;20456;-25
2021/07/06 01:58:31;;;;;;;2.50;1.60;;;27.50;53.70;;;;;;5125131;28;20443;-25
2021/07/06 02:01:03;;;;;;;2.77;1.30;;;27.50;53.80;;;;;;5125295;28;20526;-25
2021/07/06 02:03:34;;;;;;;1.30;1.20;;;27.50;52.70;;;;;;5125551;28;20451;-28
2021/07/06 02:06:05;;;;;;;1.27;1.10;;;27.40;50.80;;;;;;5125023;28;20461;-25
2021/07/06 02:08:39;;;;;;;2.83;2.63;;;27.40;50.70;;;;;;5125604;28;20441;-24
2021/07/06 02:11:10;;;;;;;0.93;0.93;;;27.30;50.60;;;;;;5124319;28;20455;-28
2021/07/06 02:13:45;;;;;;;1.07;0.90;;;27.40;49.70;;;;;;5125609;28;20800;-25
2021/07/06 02:16:17;;;;;;;1.40;1.30;;;27.30;50.60;;;;;;5124773;28;20512;-25
2021/07/06 02:18:50;;;;;;;1.80;1.60;;;27.20;50.20;;;;;;5125169;28;20451;-24
2021/07/06 02:21:21;;;;;;;1.70;1.60;;;27.10;51.70;;;;;;5124674;28;20779;-27
2021/07/06 02:23:59;;;;;;;1.60;1.50;;;27.20;51.00;;;;;;5139055;27;20459;-28
2021/07/06 02:26:33;;;;;;;1.13;1.13;;;27.10;51.10;;;;;;5145038;27;20453;-27
2021/07/06 02:29:04;;;;;;;1.50;1.40;;;27.00;53.00;;;;;;5144721;27;20559;-26
2021/07/06 02:31:35;;;;;;;1.40;1.30;;;26.90;54.50;;;;;;5145501;27;20481;-25
2021/07/06 02:34:06;;;;;;;1.73;1.50;;;26.90;54.70;;;;;;5145827;27;20908;-25
2021/07/06 02:36:37;;;;;;;1.60;1.40;;;26.80;54.20;;;;;;5145364;27;20497;-26
2021/07/06 02:39:13;;;;;;;1.50;1.40;;;26.80;55.10;;;;;;5145853;27;20566;-26
2021/07/06 02:41:47;;;;;;;1.90;1.80;;;26.80;55.80;;;;;;5144853;27;20470;-27
2021/07/06 02:44:37;;;;;;;1.70;1.60;;;26.70;56.70;;;;;;5145513;27;20798;-25
2021/07/06 02:47:08;;;;;;;2.80;2.40;;;26.60;57.60;;;;;;5144893;27;20472;-24
2021/07/06 02:49:39;;;;;;;2.20;2.10;;;26.50;58.50;;;;;;5145356;27;20508;-26
2021/07/06 02:52:13;;;;;;;4.20;2.40;;;26.40;59.60;;;;;;5144376;27;20448;-26
2021/07/06 02:54:51;;;;;;;3.33;3.03;;;26.40;60.60;;;;;;5144838;27;20445;-27
2021/07/06 02:57:38;;;;;;;2.83;2.63;;;26.30;62.60;;;;;;5144660;27;20444;-26
2021/07/06 03:00:12;;;;;;;2.50;2.40;;;26.30;64.80;;;;;;5145069;27;20459;-28
2021/07/06 03:02:44;;;;;;;2.10;1.90;;;26.20;66.50;;;;;;5144457;27;20445;-27
2021/07/06 03:05:17;;;;;;;2.57;2.37;;;26.00;68.40;;;;;;5144874;27;20470;-26
2021/07/06 03:07:49;;;;;;;2.87;2.67;;;26.00;71.50;;;;;;5144550;27;20449;-30
2021/07/06 03:10:23;;;;;;;2.63;2.43;;;25.90;73.50;;;;;;5144389;27;20545;-26
2021/07/06 03:13:01;;;;;;;2.50;2.30;;;25.90;75.20;;;;;;5144881;27;20780;-26
2021/07/06 03:15:33;;;;;;;2.77;2.57;;;25.80;76.70;;;;;;5144837;27;20442;-27
2021/07/06 03:18:06;;;;;;;4.17;2.83;;;25.60;78.00;;;;;;5144200;27;20463;-24
2021/07/06 03:20:41;;;;;;;2.70;2.50;;;25.50;78.80;;;;;;5144413;27;20444;-26
2021/07/06 03:23:12;;;;;;;2.53;2.37;;;25.40;79.90;;;;;;5137670;27;20473;-25
2021/07/06 03:25:45;;;;;;;2.90;2.70;;;25.30;81.30;;;;;;5123264;28;20450;-24
2021/07/06 03:28:16;;;;;;;2.70;2.50;;;25.20;82.30;;;;;;5123542;28;20430;-25
2021/07/06 03:30:47;;;;;;;2.63;2.53;;;25.10;83.20;;;;;;5123279;28;20543;-24
2021/07/06 03:33:21;;;;;;;2.60;2.50;;;25.00;84.30;;;;;;5123796;28;20482;-24
2021/07/06 03:35:55;;;;;;;2.67;2.47;;;25.00;85.40;;;;;;5123079;28;20445;-24
2021/07/06 03:38:27;;;;;;;2.43;2.33;;;24.90;86.70;;;;;;5123555;28;20441;-27
2021/07/06 03:41:00;;;;;;;3.00;2.80;;;24.80;88.00;;;;;;5122584;28;20479;-25
2021/07/06 03:43:36;;;;;;;5.13;2.87;;;24.70;89.40;;;;;;5123535;28;20420;-25
2021/07/06 03:46:11;;;;;;;5.00;2.87;;;24.60;90.20;;;;;;5123939;28;20827;-23
2021/07/06 03:48:42;;;;;;;3.00;2.80;;;24.50;90.90;;;;;;5123831;28;20488;-26
2021/07/06 03:51:15;;;;;;;3.17;2.90;;;24.40;91.30;;;;;;5123392;28;20485;-24
2021/07/06 03:53:49;;;;;;;2.60;2.40;;;24.40;92.20;;;;;;5123850;28;20431;-26
2021/07/06 03:56:28;;;;;;;3.50;2.77;;;24.30;92.70;;;;;;5138297;27;20448;-25
2021/07/06 03:59:02;;;;;;;7.37;3.90;;;24.20;93.20;;;;;;5144468;27;20493;-30
2021/07/06 04:01:37;;;;;;;6.33;3.30;;;24.10;93.80;;;;;;5144215;28;20437;-26
2021/07/06 04:04:11;;;;;;;2.97;2.77;;;24.00;94.20;;;;;;5144455;27;20437;-25
2021/07/06 04:06:42;;;;;;;2.97;2.60;;;24.00;94.90;;;;;;5143955;27;20784;-25
2021/07/06 04:09:13;;;;;;;3.20;2.90;;;23.80;95.60;;;;;;5144386;27;20419;-26
2021/07/06 04:11:46;;;;;;;4.03;2.90;;;23.70;96.20;;;;;;5143522;27;20519;-26
2021/07/06 04:14:17;;;;;;;3.50;3.20;;;23.70;96.50;;;;;;5144142;28;20452;-25
2021/07/06 04:16:48;;;;;;;2.50;2.40;;;23.60;97.10;;;;;;5144083;27;20440;-29
2021/07/06 04:19:21;;;;;;;3.70;3.40;;;23.50;97.70;;;;;;5144285;27;20490;-24
2021/07/06 04:21:52;;;;;;;8.40;7.60;;;23.40;98.20;;;;;;5143560;27;20472;-27
2021/07/06 04:24:23;;;;;;;13.70;12.60;;;23.40;98.60;;;;;;5144172;27;20445;-23
2021/07/06 04:26:56;;;;;;;17.43;16.10;;;23.40;98.70;;;;;;5143065;27;20440;-24
2021/07/06 04:29:27;;;;;;;11.43;10.47;;;23.30;99.20;;;;;;5144179;27;20445;-24
2021/07/06 04:31:59;;;;;;;9.53;8.83;;;23.20;99.60;;;;;;5143956;27;20512;-25
2021/07/06 04:34:30;;;;;;;8.97;8.17;;;23.10;99.70;;;;;;5144318;27;20440;-26
2021/07/06 04:37:04;;;;;;;7.90;7.30;;;23.10;99.80;;;;;;5143365;28;20472;-26
2021/07/06 04:39:36;;;;;;;8.03;7.43;;;23.00;99.90;;;;;;5144087;27;20446;-24
2021/07/06 04:42:15;;;;;;;6.10;5.60;;;22.90;99.90;;;;;;5143091;28;20435;-27
2021/07/06 04:44:54;;;;;;;3.47;3.27;;;22.90;99.90;;;;;;5143553;27;20536;-27
2021/07/06 04:47:25;;;;;;;3.47;3.17;;;22.80;99.90;;;;;;5143492;27;20421;-24
2021/07/06 04:49:56;;;;;;;2.97;2.77;;;22.70;99.90;;;;;;5144141;27;20462;-28
2021/07/06 04:52:30;;;;;;;3.73;3.40;;;22.70;99.90;;;;;;5145437;27;20497;-25
2021/07/06 04:55:01;;;;;;;3.10;2.90;;;22.60;99.90;;;;;;5143365;27;20453;-25
2021/07/06 04:57:40;;;;;;;3.17;2.97;;;22.50;99.90;;;;;;5126341;27;20420;-26
2021/07/06 05:00:13;;;;;;;3.70;3.50;;;22.50;99.90;;;;;;5126599;28;20427;-26
2021/07/06 05:02:44;;;;;;;3.37;3.17;;;22.40;99.90;;;;;;5126521;28;20438;-26
2021/07/06 05:05:20;;;;;;;3.20;3.00;;;22.40;99.90;;;;;;5126908;28;20931;-26
2021/07/06 05:07:56;;;;;;;3.33;3.00;;;22.30;99.90;;;;;;5126944;28;20423;-25
2021/07/06 05:10:34;;;;;;;3.20;2.90;;;22.20;99.90;;;;;;5125134;28;20478;-24
2021/07/06 05:13:06;;;;;;;3.17;2.97;;;22.10;99.90;;;;;;5126488;28;20922;-26
2021/07/06 05:15:38;;;;;;;3.30;3.10;;;22.00;99.90;;;;;;5126010;28;20446;-25
2021/07/06 05:18:11;;;;;;;3.67;3.43;;;22.00;99.90;;;;;;5126271;28;20438;-25
2021/07/06 05:20:42;;;;;;;3.43;3.13;;;21.90;99.90;;;;;;5126000;27;20440;-27
2021/07/06 05:23:13;;;;;;;3.20;3.00;;;21.80;99.90;;;;;;5126466;28;20553;-27
2021/07/06 05:25:44;;;;;;;3.27;3.07;;;21.70;99.90;;;;;;5125317;28;20514;-24
2021/07/06 05:28:22;;;;;;;3.47;3.27;;;21.70;99.90;;;;;;5126113;28;20420;-27
2021/07/06 05:30:53;;;;;;;3.57;3.37;;;21.60;99.90;;;;;;5125840;28;20489;-24
2021/07/06 05:33:27;;;;;;;3.50;3.30;;;21.50;99.90;;;;;;5126221;28;20416;-24
2021/07/06 05:36:06;;;;;;;3.20;3.00;;;21.40;99.90;;;;;;5125454;28;20412;-23
2021/07/06 05:38:38;;;;;;;3.53;3.33;;;21.30;99.90;;;;;;5126269;28;20416;-26
2021/07/06 05:41:10;;;;;;;3.60;3.30;;;21.20;99.90;;;;;;5125394;28;20445;-24
2021/07/06 05:43:45;;;;;;;3.60;3.40;;;21.20;99.90;;;;;;5125830;28;20444;-24
2021/07/06 05:46:18;;;;;;;3.27;3.07;;;21.20;99.90;;;;;;5145463;27;20448;-26
2021/07/06 05:48:53;;;;;;;3.83;3.53;;;21.10;99.90;;;;;;5146553;27;20473;-24
2021/07/06 05:51:24;;;;;;;3.33;3.13;;;20.90;99.90;;;;;;5146016;27;20481;-24
2021/07/06 05:53:55;;;;;;;3.50;3.30;;;20.80;99.90;;;;;;5146771;27;20451;-23
2021/07/06 05:56:26;;;;;;;3.40;3.13;;;20.80;99.90;;;;;;5145180;27;20831;-25
2021/07/06 05:58:59;;;;;;;3.60;3.30;;;20.70;99.90;;;;;;5146016;27;20448;-25
2021/07/06 06:01:34;;;;;;;3.40;3.20;;;20.70;99.90;;;;;;5145780;27;20445;-26
2021/07/06 06:04:11;;;;;;;3.80;3.50;;;20.50;99.90;;;;;;5146032;27;20529;-29
2021/07/06 06:06:42;;;;;;;3.43;3.23;;;20.50;99.90;;;;;;5145458;27;20440;-27
2021/07/06 06:09:13;;;;;;;3.90;3.60;;;20.40;99.90;;;;;;5146330;27;20432;-22
2021/07/06 06:11:44;;;;;;;3.53;3.23;;;20.40;99.90;;;;;;5145317;27;20451;-25
2021/07/06 06:14:16;;;;;;;3.90;3.60;;;20.30;99.90;;;;;;5146027;27;20423;-22
2021/07/06 06:16:55;;;;;;;3.00;2.80;;;20.20;99.90;;;;;;5145615;27;20478;-24
2021/07/06 06:19:26;;;;;;;3.63;3.43;;;20.10;99.90;;;;;;5145763;27;20419;-25
2021/07/06 06:21:57;;;;;;;3.83;3.53;;;20.10;99.90;;;;;;5145005;27;20540;-24
2021/07/06 06:24:28;;;;;;;3.50;3.30;;;20.00;99.90;;;;;;5145759;27;20770;-25
2021/07/06 06:26:59;;;;;;;3.53;3.27;;;19.90;99.90;;;;;;5145090;27;20813;-25
2021/07/06 06:29:35;;;;;;;3.40;3.20;;;19.80;99.90;;;;;;5145565;27;20467;-24
2021/07/06 06:32:07;;;;;;;2.70;2.60;;;19.70;99.90;;;;;;5145044;27;20471;-23
2021/07/06 06:34:40;;;;;;;3.43;3.13;;;19.70;99.90;;;;;;5145590;27;20449;-23
2021/07/06 06:37:11;;;;;;;3.83;3.40;;;19.60;99.90;;;;;;5145002;27;20462;-26
2021/07/06 06:39:51;;;;;;;3.20;2.90;;;19.60;99.90;;;;;;5145382;27;20400;-24
2021/07/06 06:42:24;;;;;;;3.27;3.00;;;19.60;99.90;;;;;;5144775;27;20400;-26
2021/07/06 06:45:00;;;;;;;3.60;3.30;;;19.40;99.90;;;;;;5144983;27;20567;-26
2021/07/06 06:47:31;;;;;;;3.87;3.57;;;19.30;99.90;;;;;;5144791;27;20453;-23
2021/07/06 06:50:06;;;;;;;3.63;3.33;;;19.30;99.90;;;;;;5145035;27;20558;-24
2021/07/06 06:52:39;;;;;;;3.77;3.30;;;19.20;99.90;;;;;;5144406;27;20820;-25
2021/07/06 06:55:15;;;;;;;3.43;3.23;;;19.20;99.90;;;;;;5144590;27;20480;-23
2021/07/06 06:57:51;;;;;;;3.53;3.33;;;19.10;99.90;;;;;;5144798;27;20408;-23
2021/07/06 07:00:23;;;;;;;3.27;3.00;;;19.00;99.90;;;;;;5145031;27;20525;-25
2021/07/06 07:03:00;;;;;;;3.60;3.40;;;19.00;99.90;;;;;;5144900;27;20415;-25
2021/07/06 07:05:34;;;;;;;3.60;3.30;;;18.90;99.90;;;;;;5144021;27;20444;-26
2021/07/06 07:08:05;;;;;;;3.30;3.10;;;18.90;99.90;;;;;;5145066;27;20504;-24
2021/07/06 07:10:40;;;;;;;3.00;2.80;;;18.90;99.90;;;;;;5144115;27;20439;-22
2021/07/06 07:13:24;;;;;;;3.60;3.30;;;18.80;99.90;;;;;;5144494;27;20489;-25
2021/07/06 07:15:59;;;;;;;3.70;3.50;;;18.80;99.90;;;;;;5144373;27;20451;-25
2021/07/06 07:18:30;;;;;;;3.73;3.27;;;18.70;99.90;;;;;;5144606;27;20466;-24
2021/07/06 07:21:03;;;;;;;3.53;3.23;;;18.70;99.90;;;;;;5144365;27;20510;-29
2021/07/06 07:23:34;;;;;;;3.50;3.20;;;18.60;99.90;;;;;;5144512;27;20534;-23
2021/07/06 07:26:05;;;;;;;3.10;2.90;;;18.60;99.90;;;;;;5143680;27;20778;-23
2021/07/06 07:28:41;;;;;;;4.00;3.70;;;18.50;99.90;;;;;;5144538;27;20457;-24
2021/07/06 07:31:13;;;;;;;3.10;2.90;;;18.50;99.90;;;;;;5144409;27;20440;-25
2021/07/06 07:33:44;;;;;;;3.27;3.07;;;18.30;99.90;;;;;;5144674;27;20496;-25
2021/07/06 07:36:15;;;;;;;3.53;3.33;;;18.40;99.90;;;;;;5143892;27;20449;-22
2021/07/06 07:38:52;;;;;;;3.30;3.10;;;18.30;99.90;;;;;;5143909;27;20444;-27
2021/07/06 07:41:25;;;;;;;3.53;3.33;;;18.20;99.90;;;;;;5143379;27;20419;-23
2021/07/06 07:43:58;;;;;;;3.90;3.60;;;18.20;99.90;;;;;;5144187;27;20988;-26
2021/07/06 07:46:36;;;;;;;3.53;3.20;;;18.20;99.90;;;;;;5143997;27;20472;-24
2021/07/06 07:49:07;;;;;;;3.87;3.50;;;18.20;99.90;;;;;;5144478;27;20501;-25
2021/07/06 07:51:46;;;;;;;3.80;3.50;;;18.10;99.90;;;;;;5143893;28;20448;-29
2021/07/06 07:54:20;;;;;;;4.27;3.97;;;18.00;99.90;;;;;;5144237;28;20914;-25
2021/07/06 07:56:51;;;;;;;3.80;3.50;;;18.00;99.90;;;;;;5143235;27;20473;-23
2021/07/06 07:59:36;;;;;;;;;;;;;;;;;;;;;
2021/07/06 08:02:11;;;;;;;3.90;3.60;;;17.90;99.90;;;;;;5143763;27;20453;-24
2021/07/06 08:04:42;;;;;;;4.23;3.60;;;17.90;99.90;;;;;;5144709;27;20432;-24
2021/07/06 08:07:16;;;;;;;3.67;3.37;;;17.90;99.90;;;;;;5143421;28;20466;-24
2021/07/06 08:09:47;;;;;;;4.30;3.97;;;17.90;99.90;;;;;;5144291;27;20920;-26
2021/07/06 08:12:31;;;;;;;4.10;3.80;;;17.80;99.90;;;;;;5143104;27;20480;-22
2021/07/06 08:15:10;;;;;;;4.17;3.77;;;17.70;99.90;;;;;;5147050;27;20469;-24
2021/07/06 08:17:46;;;;;;;4.53;4.00;;;17.60;99.90;;;;;;5164280;27;20444;-23
2021/07/06 08:20:19;;;;;;;3.80;3.50;;;17.70;99.90;;;;;;5131583;27;20533;-22
2021/07/06 08:22:56;;;;;;;4.00;3.70;;;17.60;99.90;;;;;;5123617;28;20491;-25
2021/07/06 08:25:29;;;;;;;3.80;3.50;;;17.50;99.90;;;;;;5122895;28;20454;-26
2021/07/06 08:28:02;;;;;;;3.57;3.37;;;17.50;99.90;;;;;;5126384;28;20469;-23
2021/07/06 08:30:39;;;;;;;4.30;3.90;;;17.50;99.90;;;;;;5127160;28;20448;-24
2021/07/06 08:33:15;;;;;;;4.37;4.07;;;17.40;99.90;;;;;;5127223;28;20507;-24
2021/07/06 08:35:51;;;;;;;4.13;3.83;;;17.40;99.90;;;;;;5126712;27;20459;-22
2021/07/06 08:38:23;;;;;;;4.10;3.80;;;17.30;99.90;;;;;;5127016;28;20480;-24
2021/07/06 08:41:01;;;;;;;3.90;3.63;;;17.20;99.90;;;;;;5126783;28;20429;-22
2021/07/06 08:43:36;;;;;;;3.90;3.60;;;17.20;99.90;;;;;;5126928;28;20794;-25
2021/07/06 08:46:19;;;;;;;3.97;3.67;;;17.20;99.90;;;;;;5127009;28;20773;-26
2021/07/06 08:48:55;;;;;;;3.80;3.50;;;17.10;99.90;;;;;;5126978;28;20473;-23
2021/07/06 08:51:36;;;;;;;4.33;4.03;;;17.00;99.90;;;;;;5133024;27;20888;-24
2021/07/06 08:54:07;;;;;;;3.90;3.60;;;17.00;99.90;;;;;;5147596;27;20496;-23
2021/07/06 08:56:44;;;;;;;4.30;4.03;;;16.90;99.90;;;;;;5146296;27;20544;-25
2021/07/06 08:59:37;;;;;;;4.97;4.57;;;16.90;99.90;;;;;;5147247;27;20489;-23
2021/07/06 09:02:12;;;;;;;4.83;4.10;;;16.80;99.90;;;;;;5147122;27;20436;-26
2021/07/06 09:04:50;;;;;;;4.83;4.47;;;16.80;99.90;;;;;;5147554;27;20974;-26
2021/07/06 09:07:27;;;;;;;4.20;3.90;;;16.80;99.90;;;;;;5146581;27;20422;-23
2021/07/06 09:10:21;;;;;;;4.60;4.30;;;16.80;99.90;;;;;;5147258;27;20470;-22
2021/07/06 09:12:53;;;;;;;5.67;5.17;;;16.70;99.90;;;;;;5147025;27;20538;-23
2021/07/06 09:15:33;;;;;;;4.93;4.53;;;16.70;99.90;;;;;;5146601;27;20441;-24
2021/07/06 09:18:15;;;;;;;5.70;5.10;;;16.70;99.90;;;;;;5146830;27;20449;-22
2021/07/06 09:21:04;;;;;;;5.50;5.10;;;16.70;99.90;;;;;;5146641;27;20504;-26
2021/07/06 09:23:41;;;;;;;4.90;4.50;;;16.70;99.90;;;;;;5146923;27;20433;-22
2021/07/06 09:26:15;;;;;;;4.67;4.37;;;16.60;99.90;;;;;;5145976;27;20760;-22
2021/07/06 09:28:47;;;;;;;4.50;4.10;;;16.50;99.90;;;;;;5146862;27;20452;-22
2021/07/06 09:31:29;;;;;;;5.00;4.60;;;16.50;99.90;;;;;;5146745;27;20444;-23
2021/07/06 09:34:03;;;;;;;5.40;5.00;;;16.40;99.90;;;;;;5146762;27;20499;-24
2021/07/06 09:36:43;;;;;;;5.60;4.43;;;16.40;99.90;;;;;;5146158;27;20938;-24
2021/07/06 09:39:20;;;;;;;5.33;4.60;;;16.40;99.90;;;;;;5146204;27;20486;-22
2021/07/06 09:42:02;;;;;;;4.80;4.50;;;16.40;99.90;;;;;;5146004;27;20490;-23
2021/07/06 09:44:39;;;;;;;5.80;5.30;;;16.40;99.90;;;;;;5146805;27;20975;-23
2021/07/06 09:47:15;;;;;;;5.30;4.90;;;16.40;99.90;;;;;;5146164;27;20468;-25
2021/07/06 09:49:57;;;;;;;4.90;4.50;;;16.40;99.90;;;;;;5146607;27;20455;-23
2021/07/06 09:52:38;;;;;;;5.27;4.87;;;16.30;99.90;;;;;;5145751;27;20456;-25
2021/07/06 09:55:10;;;;;;;5.90;5.10;;;16.20;99.90;;;;;;5146685;27;20448;-22
2021/07/06 09:57:41;;;;;;;5.47;5.07;;;16.20;99.90;;;;;;5145416;27;20474;-25
2021/07/06 10:00:17;;;;;;;5.83;4.70;;;16.20;99.90;;;;;;5146664;27;20425;-24
2021/07/06 10:02:48;;;;;;;5.20;4.80;;;16.30;99.90;;;;;;5146005;27;20508;-26
2021/07/06 10:05:25;;;;;;;5.10;4.60;;;16.20;99.90;;;;;;5146283;27;20950;-27
2021/07/06 10:08:03;;;;;;;5.00;4.60;;;16.20;99.90;;;;;;5145614;27;20458;-23
2021/07/06 10:10:34;;;;;;;5.13;4.73;;;16.20;99.90;;;;;;5144990;27;20856;-23
2021/07/06 10:13:05;;;;;;;5.10;4.70;;;16.20;99.90;;;;;;5145847;27;20436;-25
2021/07/06 10:15:37;;;;;;;5.20;4.80;;;16.20;99.90;;;;;;5145563;27;20425;-22
2021/07/06 10:18:10;;;;;;;5.80;5.20;;;16.20;99.90;;;;;;5145505;27;20452;-23
2021/07/06 10:20:41;;;;;;;5.77;5.27;;;16.10;99.90;;;;;;5145266;27;20449;-25
2021/07/06 10:23:19;;;;;;;7.20;5.57;;;16.10;99.90;;;;;;5145814;27;20564;-25
2021/07/06 10:25:58;;;;;;;5.67;5.27;;;16.00;99.90;;;;;;5144930;27;20904;-23
2021/07/06 10:28:31;;;;;;;5.70;5.30;;;16.00;99.90;;;;;;5145543;27;20441;-22
2021/07/06 10:31:19;;;;;;;6.30;5.70;;;16.00;99.90;;;;;;5145240;27;20437;-22
2021/07/06 10:33:52;;;;;;;5.60;5.20;;;16.00;99.90;;;;;;5145360;27;20477;-24
2021/07/06 10:36:49;;;;;;;6.33;5.83;;;16.00;99.90;;;;;;5145224;27;20425;-25
2021/07/06 10:39:47;;;;;;;5.50;5.10;;;16.00;99.90;;;;;;5141844;27;20477;-22
2021/07/06 10:42:18;;;;;;;6.00;5.50;;;16.00;99.90;;;;;;5144878;27;20445;-23
2021/07/06 10:48:33;;;;;;;7.10;6.40;;;15.90;99.90;;;;;;5144754;27;20555;-26
2021/07/06 10:51:16;;;;;;;6.40;5.57;;;15.90;99.90;;;;;;5141621;27;20514;-23
2021/07/06 10:54:05;;;;;;;6.17;5.67;;;16.00;99.90;;;;;;5124501;28;20482;-23
2021/07/06 10:56:38;;;;;;;5.43;5.03;;;16.00;99.90;;;;;;5141159;27;20456;-25
2021/07/06 10:59:20;;;;;;;5.43;5.03;;;16.10;99.90;;;;;;5144760;27;20481;-24
2021/07/06 11:02:04;;;;;;;5.70;5.30;;;16.10;99.90;;;;;;5135571;27;20441;-25
2021/07/06 11:05:06;;;;;;;5.57;5.00;;;16.20;99.90;;;;;;5145158;27;20453;-24
2021/07/06 11:07:51;;;;;;;5.70;5.20;;;16.20;99.90;;;;;;5144186;27;20523;-24
2021/07/06 11:10:42;;;;;;;6.37;5.40;;;16.30;99.90;;;;;;5143707;27;20448;-24
2021/07/06 11:13:18;;;;;;;6.17;5.57;;;16.30;99.90;;;;;;5124591;28;20438;-26
2021/07/06 11:15:49;;;;;;;5.70;5.30;;;16.30;99.90;;;;;;5124527;28;20469;-25
2021/07/06 11:18:41;;;;;;;5.87;5.23;;;16.30;99.90;;;;;;5124101;28;20449;-24
2021/07/06 11:21:37;;;;;;;6.03;5.53;;;16.40;99.90;;;;;;5123688;28;20450;-24
2021/07/06 11:24:22;;;;;;;6.03;5.47;;;16.40;99.90;;;;;;5124415;28;20485;-23
2021/07/06 11:26:53;;;;;;;6.30;5.77;;;16.40;99.90;;;;;;5123307;28;20441;-28
2021/07/06 11:29:28;;;;;;;6.20;5.70;;;16.40;99.90;;;;;;5123822;28;20571;-22
2021/07/06 11:32:14;;;;;;;5.80;5.30;;;16.40;99.90;;;;;;5123761;28;20474;-21
2021/07/06 11:34:46;;;;;;;5.90;5.40;;;16.40;99.90;;;;;;5124159;28;20489;-24
2021/07/06 11:37:24;;;;;;;5.83;5.33;;;16.50;99.90;;;;;;5123685;28;20438;-21
2021/07/06 11:40:00;;;;;;;5.20;4.80;;;16.50;99.90;;;;;;5123610;28;20767;-21
2021/07/06 11:42:40;;;;;;;5.20;4.80;;;16.50;99.90;;;;;;5123263;28;20470;-25
2021/07/06 11:45:19;;;;;;;4.70;4.40;;;16.50;99.90;;;;;;5123759;28;20469;-23
2021/07/06 11:48:12;;;;;;;5.97;4.87;;;16.50;99.90;;;;;;5123613;28;20449;-24
2021/07/06 11:50:47;;;;;;;5.87;5.37;;;16.50;99.90;;;;;;5123295;28;20457;-23
2021/07/06 11:53:27;;;;;;;5.30;4.80;;;16.40;99.90;;;;;;5124112;28;20492;-22
2021/07/06 11:56:03;;;;;;;5.33;4.93;;;16.50;99.90;;;;;;5123083;28;20485;-24
2021/07/06 11:58:36;;;;;;;5.10;4.80;;;16.50;99.90;;;;;;5124090;28;20486;-27
2021/07/06 12:01:13;;;;;;;5.20;4.80;;;16.50;99.90;;;;;;5125376;28;20468;-25
2021/07/06 12:03:44;;;;;;;4.80;4.50;;;16.50;99.90;;;;;;5128261;28;20444;-22
2021/07/06 12:06:16;;;;;;;4.50;4.10;;;16.50;99.90;;;;;;5127540;28;20551;-25
2021/07/06 12:08:49;;;;;;;5.23;4.73;;;16.40;99.90;;;;;;5128096;28;20469;-22
2021/07/06 12:11:23;;;;;;;5.67;4.27;;;16.50;99.90;;;;;;5126985;27;20480;-24
2021/07/06 12:13:58;;;;;;;4.33;3.93;;;16.60;99.90;;;;;;5128222;28;20440;-25
2021/07/06 12:16:37;;;;;;;5.30;4.47;;;16.60;99.90;;;;;;5128009;28;20425;-23
2021/07/06 12:19:10;;;;;;;4.73;4.37;;;16.60;99.90;;;;;;5136727;27;20455;-23
2021/07/06 12:21:43;;;;;;;4.63;4.23;;;16.60;99.90;;;;;;5147980;27;20459;-24
2021/07/06 12:24:18;;;;;;;3.77;3.40;;;16.60;99.90;;;;;;5148449;27;20448;-21
2021/07/06 12:26:50;;;;;;;4.07;3.77;;;16.60;99.90;;;;;;5147573;27;20479;-24
2021/07/06 12:29:28;;;;;;;3.97;3.67;;;16.60;99.90;;;;;;5148491;27;20429;-28
2021/07/06 12:32:11;;;;;;;3.50;3.20;;;16.50;99.90;;;;;;5148440;27;20543;-22
2021/07/06 12:34:50;;;;;;;4.27;3.97;;;16.50;99.90;;;;;;5148403;27;20480;-25
2021/07/06 12:37:27;;;;;;;3.57;3.27;;;16.50;99.90;;;;;;5147537;27;20444;-23
2021/07/06 12:40:09;;;;;;;4.93;4.53;;;16.50;99.90;;;;;;5148237;27;20474;-24
2021/07/06 12:42:50;;;;;;;4.77;4.47;;;16.60;99.90;;;;;;5147213;27;20543;-22
2021/07/06 12:45:25;;;;;;;4.30;4.00;;;16.60;99.90;;;;;;5148004;27;20461;-23
2021/07/06 12:48:02;;;;;;;5.20;4.70;;;16.60;99.90;;;;;;5147569;27;20489;-25
2021/07/06 12:50:42;;;;;;;4.30;4.00;;;16.60;99.90;;;;;;5147131;27;20436;-22
2021/07/06 12:53:13;;;;;;;4.83;4.43;;;16.60;99.90;;;;;;5148246;27;20432;-22
2021/07/06 12:55:54;;;;;;;4.43;4.13;;;16.60;99.90;;;;;;5135919;27;20492;-26
2021/07/06 12:58:29;;;;;;;4.83;4.47;;;16.60;99.90;;;;;;5127224;28;20445;-24
2021/07/06 13:01:03;;;;;;;5.07;4.67;;;16.60;99.90;;;;;;5126980;28;20505;-25
2021/07/06 13:03:55;;;;;;;6.00;5.50;;;16.60;99.90;;;;;;5127046;28;20445;-23
2021/07/06 13:06:26;;;;;;;6.40;5.90;;;16.80;99.90;;;;;;5126473;28;20497;-22
2021/07/06 13:09:12;;;;;;;5.63;5.10;;;16.70;99.90;;;;;;5127100;28;20758;-22
2021/07/06 13:11:43;;;;;;;6.30;5.80;;;16.70;99.90;;;;;;5126122;28;20491;-23
2021/07/06 13:14:18;;;;;;;6.70;6.20;;;16.80;99.90;;;;;;5126830;28;20503;-22
2021/07/06 13:16:53;;;;;;;7.10;6.50;;;16.70;99.90;;;;;;5126819;28;20512;-22
2021/07/06 13:19:26;;;;;;;5.83;5.43;;;16.70;99.90;;;;;;5138242;27;20449;-24
2021/07/06 13:22:02;;;;;;;6.77;6.27;;;16.80;99.90;;;;;;5146597;27;20503;-25
2021/07/06 13:24:35;;;;;;;6.43;5.93;;;16.80;99.90;;;;;;5147745;27;20452;-23
2021/07/06 13:27:07;;;;;;;5.77;5.37;;;16.80;99.90;;;;;;5146478;27;20464;-22
2021/07/06 13:29:46;;;;;;;6.20;5.70;;;16.80;99.90;;;;;;5147808;27;20820;-23
2021/07/06 13:32:19;;;;;;;6.30;5.80;;;16.90;99.90;;;;;;5147032;27;20889;-24